Terminal Aerodrome Forecast
Issued by NWS Wilmington, OH

Current Version | Previous Version | Text Only | Print | Product List | Glossary Off
Versions: 1 2 3 4 5 6 7 8 9 10 11 12 13 14 15 16 17 18 19 20 21 22 23 24 25 26 27 28 29 30 31

938
FTUS41 KILN 262026 AAB
TAFDAY
TAF AMD
KDAY 262026Z 2620/2718 29012KT P6SM VCTS BKN050CB
      TEMPO 2620/2622 5SM -TSRA OVC025CB
     FM262200 03008KT P6SM VCSH SCT035 BKN100
     FM270400 06009KT P6SM BKN022=

USA.gov is the U.S. government's official web portal to all federal, state and local government web resources and services.